sensor_id;sensor_type;location;lat;lon;timestamp;pressure;altitude;pressure_sealevel;temperature;humidity
47726;BME280;33483;48.294;16.388;2023-08-30T00:01:15;98594.94;;;14.91;100.00
47726;BME280;33483;48.294;16.388;2023-08-30T00:03:42;98584.94;;;14.88;100.00
47726;BME280;33483;48.294;16.388;2023-08-30T00:06:12;98585.69;;;14.88;100.00
47726;BME280;33483;48.294;16.388;2023-08-30T00:08:39;98587.41;;;14.84;100.00
47726;BME280;33483;48.294;16.388;2023-08-30T00:11:06;98589.31;;;14.81;100.00
47726;BME280;33483;48.294;16.388;2023-08-30T00:13:33;98604.00;;;14.82;100.00
47726;BME280;33483;48.294;16.388;2023-08-30T00:16:00;98612.81;;;14.78;100.00
47726;BME280;33483;48.294;16.388;2023-08-30T00:18:29;98609.25;;;14.78;100.00
47726;BME280;33483;48.294;16.388;2023-08-30T00:20:57;98609.00;;;14.83;100.00
47726;BME280;33483;48.294;16.388;2023-08-30T00:23:27;98599.88;;;14.83;100.00
47726;BME280;33483;48.294;16.388;2023-08-30T00:25:54;98588.72;;;14.83;100.00
47726;BME280;33483;48.294;16.388;2023-08-30T00:28:21;98588.16;;;14.84;100.00
47726;BME280;33483;48.294;16.388;2023-08-30T00:30:55;98580.38;;;14.83;100.00
47726;BME280;33483;48.294;16.388;2023-08-30T00:33:22;98580.38;;;14.83;100.00
47726;BME280;33483;48.294;16.388;2023-08-30T00:35:59;98574.47;;;14.79;100.00
47726;BME280;33483;48.294;16.388;2023-08-30T00:38:26;98582.28;;;14.80;100.00
47726;BME280;33483;48.294;16.388;2023-08-30T00:40:54;98577.41;;;14.81;100.00
47726;BME280;33483;48.294;16.388;2023-08-30T00:43:22;98587.84;;;14.80;100.00
47726;BME280;33483;48.294;16.388;2023-08-30T00:45:49;98606.06;;;14.81;100.00
47726;BME280;33483;48.294;16.388;2023-08-30T00:48:19;98608.25;;;14.83;100.00
47726;BME280;33483;48.294;16.388;2023-08-30T00:50:47;98617.53;;;14.85;100.00
47726;BME280;33483;48.294;16.388;2023-08-30T00:53:17;98621.38;;;14.90;100.00
47726;BME280;33483;48.294;16.388;2023-08-30T00:55:48;98621.94;;;14.88;100.00
47726;BME280;33483;48.294;16.388;2023-08-30T00:58:15;98629.91;;;14.92;100.00
47726;BME280;33483;48.294;16.388;2023-08-30T01:00:43;98632.25;;;14.95;100.00
47726;BME280;33483;48.294;16.388;2023-08-30T01:03:11;98629.06;;;14.99;100.00
47726;BME280;33483;48.294;16.388;2023-08-30T01:05:38;98632.72;;;15.01;100.00
47726;BME280;33483;48.294;16.388;2023-08-30T01:08:05;98625.84;;;15.02;100.00
47726;BME280;33483;48.294;16.388;2023-08-30T01:10:39;98632.47;;;15.07;100.00
47726;BME280;33483;48.294;16.388;2023-08-30T01:13:09;98631.88;;;15.08;100.00
47726;BME280;33483;48.294;16.388;2023-08-30T01:15:37;98641.41;;;15.05;100.00
47726;BME280;33483;48.294;16.388;2023-08-30T01:18:06;98627.47;;;15.05;100.00
47726;BME280;33483;48.294;16.388;2023-08-30T01:20:35;98627.94;;;15.11;100.00
47726;BME280;33483;48.294;16.388;2023-08-30T01:23:14;98637.63;;;15.10;100.00
47726;BME280;33483;48.294;16.388;2023-08-30T01:28:30;98647.00;;;15.05;100.00
47726;BME280;33483;48.294;16.388;2023-08-30T01:30:58;98648.50;;;15.06;100.00
47726;BME280;33483;48.294;16.388;2023-08-30T01:33:26;98647.75;;;15.06;100.00
47726;BME280;33483;48.294;16.388;2023-08-30T01:35:57;98640.13;;;15.06;100.00
47726;BME280;33483;48.294;16.388;2023-08-30T01:38:26;98638.94;;;15.09;100.00
47726;BME280;33483;48.294;16.388;2023-08-30T01:40:55;98643.53;;;15.14;100.00
47726;BME280;33483;48.294;16.388;2023-08-30T01:43:23;98646.00;;;15.10;100.00
47726;BME280;33483;48.294;16.388;2023-08-30T01:45:51;98639.25;;;15.13;100.00
47726;BME280;33483;48.294;16.388;2023-08-30T01:48:19;98655.56;;;15.17;100.00
47726;BME280;33483;48.294;16.388;2023-08-30T01:50:47;98646.63;;;15.18;100.00
47726;BME280;33483;48.294;16.388;2023-08-30T01:53:17;98656.47;;;15.19;100.00
47726;BME280;33483;48.294;16.388;2023-08-30T01:55:47;98658.94;;;15.15;100.00
47726;BME280;33483;48.294;16.388;2023-08-30T01:58:18;98657.63;;;15.16;100.00
47726;BME280;33483;48.294;16.388;2023-08-30T02:00:45;98652.22;;;15.18;100.00
47726;BME280;33483;48.294;16.388;2023-08-30T02:03:13;98663.38;;;15.18;100.00
47726;BME280;33483;48.294;16.388;2023-08-30T02:08:41;98653.50;;;15.17;100.00
47726;BME280;33483;48.294;16.388;2023-08-30T02:11:17;98660.16;;;15.22;100.00
47726;BME280;33483;48.294;16.388;2023-08-30T02:13:46;98649.25;;;15.16;100.00
47726;BME280;33483;48.294;16.388;2023-08-30T02:16:13;98649.53;;;15.11;100.00
47726;BME280;33483;48.294;16.388;2023-08-30T02:18:41;98653.19;;;15.13;100.00
47726;BME280;33483;48.294;16.388;2023-08-30T02:21:09;98654.19;;;15.08;100.00
47726;BME280;33483;48.294;16.388;2023-08-30T02:23:39;98664.91;;;15.02;100.00
47726;BME280;33483;48.294;16.388;2023-08-30T02:26:06;98655.03;;;15.01;100.00
47726;BME280;33483;48.294;16.388;2023-08-30T02:28:33;98652.81;;;14.90;100.00
47726;BME280;33483;48.294;16.388;2023-08-30T02:31:00;98658.81;;;14.87;100.00
47726;BME280;33483;48.294;16.388;2023-08-30T02:33:27;98657.72;;;14.82;100.00
47726;BME280;33483;48.294;16.388;2023-08-30T02:35:54;98661.09;;;14.81;100.00
47726;BME280;33483;48.294;16.388;2023-08-30T02:38:23;98654.47;;;14.76;100.00
47726;BME280;33483;48.294;16.388;2023-08-30T02:40:50;98656.34;;;14.74;100.00
47726;BME280;33483;48.294;16.388;2023-08-30T02:43:17;98653.41;;;14.72;100.00
47726;BME280;33483;48.294;16.388;2023-08-30T02:45:44;98650.06;;;14.73;100.00
47726;BME280;33483;48.294;16.388;2023-08-30T02:48:11;98655.63;;;14.73;100.00
47726;BME280;33483;48.294;16.388;2023-08-30T02:50:40;98644.31;;;14.71;100.00
47726;BME280;33483;48.294;16.388;2023-08-30T02:53:08;98645.44;;;14.68;100.00
47726;BME280;33483;48.294;16.388;2023-08-30T02:55:35;98639.31;;;14.70;100.00
47726;BME280;33483;48.294;16.388;2023-08-30T02:58:02;98640.03;;;14.70;100.00
47726;BME280;33483;48.294;16.388;2023-08-30T03:00:32;98637.84;;;14.68;100.00
47726;BME280;33483;48.294;16.388;2023-08-30T03:03:01;98624.31;;;14.65;100.00
47726;BME280;33483;48.294;16.388;2023-08-30T03:05:29;98623.56;;;14.64;100.00
47726;BME280;33483;48.294;16.388;2023-08-30T03:07:56;98619.88;;;14.62;100.00
47726;BME280;33483;48.294;16.388;2023-08-30T03:10:24;98616.19;;;14.59;100.00
47726;BME280;33483;48.294;16.388;2023-08-30T03:12:51;98618.25;;;14.59;100.00
47726;BME280;33483;48.294;16.388;2023-08-30T03:15:18;98610.03;;;14.61;100.00
47726;BME280;33483;48.294;16.388;2023-08-30T03:17:45;98605.63;;;14.58;100.00
47726;BME280;33483;48.294;16.388;2023-08-30T03:20:13;98594.88;;;14.54;100.00
47726;BME280;33483;48.294;16.388;2023-08-30T03:22:40;98598.84;;;14.51;100.00
47726;BME280;33483;48.294;16.388;2023-08-30T03:25:07;98578.56;;;14.51;100.00
47726;BME280;33483;48.294;16.388;2023-08-30T03:27:38;98580.06;;;14.52;100.00
47726;BME280;33483;48.294;16.388;2023-08-30T03:30:06;98584.16;;;14.51;100.00
47726;BME280;33483;48.294;16.388;2023-08-30T03:32:34;98570.38;;;14.53;100.00
47726;BME280;33483;48.294;16.388;2023-08-30T03:35:02;98571.13;;;14.53;100.00
47726;BME280;33483;48.294;16.388;2023-08-30T03:37:32;98563.34;;;14.52;100.00
47726;BME280;33483;48.294;16.388;2023-08-30T03:40:01;98568.75;;;14.50;100.00
47726;BME280;33483;48.294;16.388;2023-08-30T03:42:28;98583.44;;;14.50;100.00
47726;BME280;33483;48.294;16.388;2023-08-30T03:44:56;98590.31;;;14.49;100.00
47726;BME280;33483;48.294;16.388;2023-08-30T03:47:23;98600.16;;;14.50;100.00
47726;BME280;33483;48.294;16.388;2023-08-30T03:49:50;98609.81;;;14.49;100.00
47726;BME280;33483;48.294;16.388;2023-08-30T03:52:17;98614.66;;;14.49;100.00
47726;BME280;33483;48.294;16.388;2023-08-30T03:54:44;98614.66;;;14.49;100.00
47726;BME280;33483;48.294;16.388;2023-08-30T03:57:11;98626.97;;;14.46;100.00
47726;BME280;33483;48.294;16.388;2023-08-30T03:59:38;98608.78;;;14.45;100.00
47726;BME280;33483;48.294;16.388;2023-08-30T04:02:05;98615.81;;;14.46;100.00
47726;BME280;33483;48.294;16.388;2023-08-30T04:04:33;98614.34;;;14.45;100.00
47726;BME280;33483;48.294;16.388;2023-08-30T04:07:02;98616.41;;;14.44;100.00
47726;BME280;33483;48.294;16.388;2023-08-30T04:09:29;98611.72;;;14.47;100.00
47726;BME280;33483;48.294;16.388;2023-08-30T04:11:56;98619.94;;;14.45;100.00
47726;BME280;33483;48.294;16.388;2023-08-30T04:14:26;98612.84;;;14.44;100.00
47726;BME280;33483;48.294;16.388;2023-08-30T04:16:53;98624.34;;;14.48;100.00
47726;BME280;33483;48.294;16.388;2023-08-30T04:19:20;98619.69;;;14.50;100.00
47726;BME280;33483;48.294;16.388;2023-08-30T04:21:48;98635.25;;;14.53;100.00
47726;BME280;33483;48.294;16.388;2023-08-30T04:24:15;98632.63;;;14.55;100.00
47726;BME280;33483;48.294;16.388;2023-08-30T04:26:42;98633.19;;;14.54;100.00
47726;BME280;33483;48.294;16.388;2023-08-30T04:29:10;98636.28;;;14.58;100.00
47726;BME280;33483;48.294;16.388;2023-08-30T04:31:37;98641.28;;;14.59;100.00
47726;BME280;33483;48.294;16.388;2023-08-30T04:34:04;98642.19;;;14.62;100.00
47726;BME280;33483;48.294;16.388;2023-08-30T04:36:32;98637.91;;;14.61;100.00
47726;BME280;33483;48.294;16.388;2023-08-30T04:38:59;98646.16;;;14.59;100.00
47726;BME280;33483;48.294;16.388;2023-08-30T04:41:29;98647.78;;;14.62;100.00
47726;BME280;33483;48.294;16.388;2023-08-30T04:43:57;98653.19;;;14.60;100.00
47726;BME280;33483;48.294;16.388;2023-08-30T04:46:25;98654.09;;;14.62;100.00
47726;BME280;33483;48.294;16.388;2023-08-30T04:48:55;98653.53;;;14.64;100.00
47726;BME280;33483;48.294;16.388;2023-08-30T04:51:22;98655.72;;;14.65;100.00
47726;BME280;33483;48.294;16.388;2023-08-30T04:53:50;98660.56;;;14.65;100.00
47726;BME280;33483;48.294;16.388;2023-08-30T04:56:18;98670.56;;;14.68;100.00
47726;BME280;33483;48.294;16.388;2023-08-30T04:58:48;98671.03;;;14.74;100.00
47726;BME280;33483;48.294;16.388;2023-08-30T05:01:17;98674.59;;;14.75;100.00
47726;BME280;33483;48.294;16.388;2023-08-30T05:03:49;98676.22;;;14.78;100.00
47726;BME280;33483;48.294;16.388;2023-08-30T05:06:16;98673.00;;;14.81;100.00
47726;BME280;33483;48.294;16.388;2023-08-30T05:08:44;98680.38;;;14.86;100.00
47726;BME280;33483;48.294;16.388;2023-08-30T05:11:13;98681.00;;;14.94;100.00
47726;BME280;33483;48.294;16.388;2023-08-30T05:13:41;98685.75;;;15.01;100.00
47726;BME280;33483;48.294;16.388;2023-08-30T05:16:08;98680.31;;;15.03;100.00
47726;BME280;33483;48.294;16.388;2023-08-30T05:18:36;98679.22;;;15.16;100.00
47726;BME280;33483;48.294;16.388;2023-08-30T05:21:05;98688.97;;;15.24;100.00
47726;BME280;33483;48.294;16.388;2023-08-30T05:23:35;98679.69;;;15.22;100.00
47726;BME280;33483;48.294;16.388;2023-08-30T05:26:04;98680.75;;;15.26;100.00
47726;BME280;33483;48.294;16.388;2023-08-30T05:28:32;98680.25;;;15.20;100.00
47726;BME280;33483;48.294;16.388;2023-08-30T05:30:59;98673.97;;;15.20;100.00
47726;BME280;33483;48.294;16.388;2023-08-30T05:33:49;98682.91;;;15.18;100.00
47726;BME280;33483;48.294;16.388;2023-08-30T05:36:42;98680.25;;;15.20;100.00
47726;BME280;33483;48.294;16.388;2023-08-30T05:39:33;98690.72;;;15.20;100.00
47726;BME280;33483;48.294;16.388;2023-08-30T05:42:03;98694.97;;;15.21;100.00
47726;BME280;33483;48.294;16.388;2023-08-30T05:44:33;98689.69;;;15.25;100.00
47726;BME280;33483;48.294;16.388;2023-08-30T05:47:00;98687.94;;;15.29;100.00
47726;BME280;33483;48.294;16.388;2023-08-30T05:49:28;98688.59;;;15.37;100.00
47726;BME280;33483;48.294;16.388;2023-08-30T05:51:55;98689.00;;;15.34;100.00
47726;BME280;33483;48.294;16.388;2023-08-30T05:54:23;98691.16;;;15.43;100.00
47726;BME280;33483;48.294;16.388;2023-08-30T05:56:50;98687.91;;;15.46;100.00
47726;BME280;33483;48.294;16.388;2023-08-30T05:59:17;98689.53;;;15.49;100.00
47726;BME280;33483;48.294;16.388;2023-08-30T06:01:45;98685.84;;;15.47;100.00
47726;BME280;33483;48.294;16.388;2023-08-30T06:04:12;98690.59;;;15.54;100.00
47726;BME280;33483;48.294;16.388;2023-08-30T06:06:40;98690.00;;;15.55;100.00
47726;BME280;33483;48.294;16.388;2023-08-30T06:09:10;98693.72;;;15.67;100.00
47726;BME280;33483;48.294;16.388;2023-08-30T06:11:38;98683.75;;;15.74;100.00
47726;BME280;33483;48.294;16.388;2023-08-30T06:14:06;98698.59;;;15.76;100.00
47726;BME280;33483;48.294;16.388;2023-08-30T06:16:35;98699.06;;;15.83;100.00
47726;BME280;33483;48.294;16.388;2023-08-30T06:19:03;98708.03;;;15.81;100.00
47726;BME280;33483;48.294;16.388;2023-08-30T06:21:32;98705.09;;;15.79;100.00
47726;BME280;33483;48.294;16.388;2023-08-30T06:24:02;98700.97;;;15.80;100.00
47726;BME280;33483;48.294;16.388;2023-08-30T06:26:29;98710.69;;;15.89;100.00
47726;BME280;33483;48.294;16.388;2023-08-30T06:28:57;98708.94;;;15.93;100.00
47726;BME280;33483;48.294;16.388;2023-08-30T06:31:30;98704.22;;;15.96;100.00
47726;BME280;33483;48.294;16.388;2023-08-30T06:34:00;98711.59;;;16.01;100.00
47726;BME280;33483;48.294;16.388;2023-08-30T06:36:29;98704.72;;;16.11;100.00
47726;BME280;33483;48.294;16.388;2023-08-30T06:38:56;98702.25;;;16.25;100.00
47726;BME280;33483;48.294;16.388;2023-08-30T06:41:23;98707.44;;;16.47;100.00
47726;BME280;33483;48.294;16.388;2023-08-30T06:43:50;98713.31;;;16.80;100.00
47726;BME280;33483;48.294;16.388;2023-08-30T06:46:20;98698.09;;;17.12;100.00
47726;BME280;33483;48.294;16.388;2023-08-30T06:48:48;98708.31;;;17.47;100.00
47726;BME280;33483;48.294;16.388;2023-08-30T06:51:15;98711.75;;;17.97;100.00
47726;BME280;33483;48.294;16.388;2023-08-30T06:53:42;98711.59;;;18.26;100.00
47726;BME280;33483;48.294;16.388;2023-08-30T06:56:09;98715.50;;;18.63;100.00
47726;BME280;33483;48.294;16.388;2023-08-30T06:58:36;98714.44;;;18.80;100.00
47726;BME280;33483;48.294;16.388;2023-08-30T07:01:06;98727.69;;;19.00;100.00
47726;BME280;33483;48.294;16.388;2023-08-30T07:03:33;98725.50;;;19.32;100.00
47726;BME280;33483;48.294;16.388;2023-08-30T07:06:03;98717.69;;;18.97;100.00
47726;BME280;33483;48.294;16.388;2023-08-30T07:08:32;98713.44;;;19.08;100.00
47726;BME280;33483;48.294;16.388;2023-08-30T07:11:00;98720.28;;;19.05;100.00
47726;BME280;33483;48.294;16.388;2023-08-30T07:13:30;98713.72;;;18.79;100.00
47726;BME280;33483;48.294;16.388;2023-08-30T07:15:57;98703.78;;;18.67;100.00
47726;BME280;33483;48.294;16.388;2023-08-30T07:18:25;98709.56;;;18.80;100.00
47726;BME280;33483;48.294;16.388;2023-08-30T07:20:52;98709.53;;;19.01;100.00
47726;BME280;33483;48.294;16.388;2023-08-30T07:23:20;98714.38;;;19.34;100.00
47726;BME280;33483;48.294;16.388;2023-08-30T07:25:50;98722.97;;;19.47;100.00
47726;BME280;33483;48.294;16.388;2023-08-30T07:28:21;98722.84;;;19.68;100.00
47726;BME280;33483;48.294;16.388;2023-08-30T07:30:49;98719.94;;;19.66;100.00
47726;BME280;33483;48.294;16.388;2023-08-30T07:33:19;98725.88;;;19.38;100.00
47726;BME280;33483;48.294;16.388;2023-08-30T07:35:46;98719.19;;;19.10;100.00
47726;BME280;33483;48.294;16.388;2023-08-30T07:38:13;98727.34;;;19.39;100.00
47726;BME280;33483;48.294;16.388;2023-08-30T07:40:41;98725.47;;;20.47;100.00
47726;BME280;33483;48.294;16.388;2023-08-30T07:43:08;98734.03;;;20.49;100.00
47726;BME280;33483;48.294;16.388;2023-08-30T07:45:35;98727.22;;;20.41;100.00
47726;BME280;33483;48.294;16.388;2023-08-30T07:48:03;98730.16;;;20.79;100.00
47726;BME280;33483;48.294;16.388;2023-08-30T07:50:31;98728.97;;;19.88;100.00
47726;BME280;33483;48.294;16.388;2023-08-30T07:52:58;98727.47;;;20.45;100.00
47726;BME280;33483;48.294;16.388;2023-08-30T07:55:25;98733.78;;;22.09;100.00
47726;BME280;33483;48.294;16.388;2023-08-30T07:57:53;98736.59;;;20.93;100.00
47726;BME280;33483;48.294;16.388;2023-08-30T08:00:20;98733.59;;;20.30;100.00
47726;BME280;33483;48.294;16.388;2023-08-30T08:02:53;98731.56;;;19.84;100.00
47726;BME280;33483;48.294;16.388;2023-08-30T08:05:22;98734.00;;;19.22;100.00
47726;BME280;33483;48.294;16.388;2023-08-30T08:07:52;98734.50;;;20.21;100.00
47726;BME280;33483;48.294;16.388;2023-08-30T08:10:22;98744.72;;;19.58;100.00
47726;BME280;33483;48.294;16.388;2023-08-30T08:12:50;98741.91;;;19.35;100.00
47726;BME280;33483;48.294;16.388;2023-08-30T08:15:20;98746.59;;;20.23;100.00
47726;BME280;33483;48.294;16.388;2023-08-30T08:17:48;98758.13;;;21.25;94.02
47726;BME280;33483;48.294;16.388;2023-08-30T08:20:16;98758.22;;;20.29;100.00
47726;BME280;33483;48.294;16.388;2023-08-30T08:22:43;98754.50;;;20.03;100.00
47726;BME280;33483;48.294;16.388;2023-08-30T08:25:11;98760.88;;;19.81;100.00
47726;BME280;33483;48.294;16.388;2023-08-30T08:27:38;98754.50;;;19.57;100.00
47726;BME280;33483;48.294;16.388;2023-08-30T08:30:06;98752.88;;;18.98;100.00
47726;BME280;33483;48.294;16.388;2023-08-30T08:32:33;98759.59;;;19.38;100.00
47726;BME280;33483;48.294;16.388;2023-08-30T08:35:00;98769.44;;;19.27;100.00
47726;BME280;33483;48.294;16.388;2023-08-30T08:37:28;98775.50;;;19.45;100.00
47726;BME280;33483;48.294;16.388;2023-08-30T08:39:57;98775.06;;;19.71;100.00
47726;BME280;33483;48.294;16.388;2023-08-30T08:42:24;98775.56;;;19.91;100.00
47726;BME280;33483;48.294;16.388;2023-08-30T08:44:53;98786.44;;;19.73;100.00
47726;BME280;33483;48.294;16.388;2023-08-30T08:47:23;98784.31;;;19.51;100.00
47726;BME280;33483;48.294;16.388;2023-08-30T08:49:51;98784.81;;;19.59;100.00
47726;BME280;33483;48.294;16.388;2023-08-30T08:52:18;98785.28;;;19.44;100.00
47726;BME280;33483;48.294;16.388;2023-08-30T08:55:00;98791.44;;;19.75;100.00
47726;BME280;33483;48.294;16.388;2023-08-30T08:57:28;98793.16;;;20.49;100.00
47726;BME280;33483;48.294;16.388;2023-08-30T08:59:56;98792.94;;;20.34;100.00
47726;BME280;33483;48.294;16.388;2023-08-30T09:02:24;98790.75;;;20.21;99.82
47726;BME280;33483;48.294;16.388;2023-08-30T09:04:57;98781.44;;;20.41;100.00
47726;BME280;33483;48.294;16.388;2023-08-30T09:07:26;98787.00;;;20.76;96.36
47726;BME280;33483;48.294;16.388;2023-08-30T09:09:56;98795.50;;;21.01;90.99
47726;BME280;33483;48.294;16.388;2023-08-30T09:12:23;98797.69;;;20.31;92.29
47726;BME280;33483;48.294;16.388;2023-08-30T09:14:57;98783.41;;;20.27;93.34
47726;BME280;33483;48.294;16.388;2023-08-30T09:17:36;98795.28;;;21.22;87.19
47726;BME280;33483;48.294;16.388;2023-08-30T09:20:07;98791.63;;;20.83;84.30
47726;BME280;33483;48.294;16.388;2023-08-30T09:22:38;98799.78;;;20.42;86.45
47726;BME280;33483;48.294;16.388;2023-08-30T09:25:06;98794.03;;;20.52;87.24
47726;BME280;33483;48.294;16.388;2023-08-30T09:27:36;98805.34;;;20.77;84.10
47726;BME280;33483;48.294;16.388;2023-08-30T09:30:04;98808.22;;;20.42;88.92
47726;BME280;33483;48.294;16.388;2023-08-30T09:32:31;98813.25;;;20.32;88.06
47726;BME280;33483;48.294;16.388;2023-08-30T09:34:58;98816.09;;;20.21;94.02
47726;BME280;33483;48.294;16.388;2023-08-30T09:37:28;98814.69;;;19.98;96.19
47726;BME280;33483;48.294;16.388;2023-08-30T09:39:55;98812.28;;;20.16;96.72
47726;BME280;33483;48.294;16.388;2023-08-30T09:42:22;98812.00;;;20.00;94.04
47726;BME280;33483;48.294;16.388;2023-08-30T09:44:49;98821.31;;;20.03;92.74
47726;BME280;33483;48.294;16.388;2023-08-30T09:47:17;98814.47;;;20.06;92.58
47726;BME280;33483;48.294;16.388;2023-08-30T09:49:45;98818.84;;;19.97;93.31
47726;BME280;33483;48.294;16.388;2023-08-30T09:52:16;98821.78;;;19.88;95.14
47726;BME280;33483;48.294;16.388;2023-08-30T09:54:45;98827.16;;;19.95;95.46
47726;BME280;33483;48.294;16.388;2023-08-30T09:57:12;98820.03;;;19.71;97.41
47726;BME280;33483;48.294;16.388;2023-08-30T09:59:40;98823.88;;;19.87;96.16
47726;BME280;33483;48.294;16.388;2023-08-30T10:02:07;98832.13;;;19.62;92.07
47726;BME280;33483;48.294;16.388;2023-08-30T10:04:38;98825.75;;;19.62;95.38
47726;BME280;33483;48.294;16.388;2023-08-30T10:07:08;98822.38;;;19.75;95.99
47726;BME280;33483;48.294;16.388;2023-08-30T10:09:37;98829.50;;;19.87;97.00
47726;BME280;33483;48.294;16.388;2023-08-30T10:12:20;98821.91;;;20.01;94.04
47726;BME280;33483;48.294;16.388;2023-08-30T10:14:48;98827.59;;;19.69;91.97
47726;BME280;33483;48.294;16.388;2023-08-30T10:17:18;98825.41;;;19.56;96.11
47726;BME280;33483;48.294;16.388;2023-08-30T10:19:49;98823.19;;;19.54;97.00
47726;BME280;33483;48.294;16.388;2023-08-30T10:22:17;98820.63;;;19.58;97.14
47726;BME280;33483;48.294;16.388;2023-08-30T10:24:46;98824.19;;;19.70;90.16
47726;BME280;33483;48.294;16.388;2023-08-30T10:27:39;98816.56;;;20.29;90.22
47726;BME280;33483;48.294;16.388;2023-08-30T10:30:08;98826.94;;;20.26;87.32
47726;BME280;33483;48.294;16.388;2023-08-30T10:32:40;98823.53;;;20.39;87.41
47726;BME280;33483;48.294;16.388;2023-08-30T10:35:10;98822.78;;;20.39;87.00
47726;BME280;33483;48.294;16.388;2023-08-30T10:37:41;98816.59;;;20.77;87.67
47726;BME280;33483;48.294;16.388;2023-08-30T10:40:08;98820.00;;;20.98;83.27
47726;BME280;33483;48.294;16.388;2023-08-30T10:42:38;98813.44;;;20.71;82.41
47726;BME280;33483;48.294;16.388;2023-08-30T10:45:05;98813.66;;;20.86;81.79
47726;BME280;33483;48.294;16.388;2023-08-30T10:47:37;98807.06;;;21.44;79.85
47726;BME280;33483;48.294;16.388;2023-08-30T10:50:07;98811.28;;;21.31;77.79
47726;BME280;33483;48.294;16.388;2023-08-30T10:52:35;98817.91;;;21.36;78.61
47726;BME280;33483;48.294;16.388;2023-08-30T10:57:35;98809.47;;;20.87;80.71
47726;BME280;33483;48.294;16.388;2023-08-30T11:02:37;98809.59;;;20.89;83.15
47726;BME280;33483;48.294;16.388;2023-08-30T11:05:05;98817.09;;;20.85;83.35
47726;BME280;33483;48.294;16.388;2023-08-30T11:07:33;98820.53;;;20.83;82.32
47726;BME280;33483;48.294;16.388;2023-08-30T11:10:06;98818.13;;;20.55;84.11
47726;BME280;33483;48.294;16.388;2023-08-30T11:12:34;98813.84;;;20.42;83.41
47726;BME280;33483;48.294;16.388;2023-08-30T11:15:02;98813.88;;;20.31;85.46
47726;BME280;33483;48.294;16.388;2023-08-30T11:17:32;98804.88;;;20.69;84.10
47726;BME280;33483;48.294;16.388;2023-08-30T11:20:09;98804.56;;;20.40;86.34
47726;BME280;33483;48.294;16.388;2023-08-30T11:22:44;98809.34;;;20.26;84.53
47726;BME280;33483;48.294;16.388;2023-08-30T11:25:11;98807.13;;;20.36;84.09
47726;BME280;33483;48.294;16.388;2023-08-30T11:27:39;98807.28;;;20.86;80.60
47726;BME280;33483;48.294;16.388;2023-08-30T11:30:10;98806.88;;;21.03;79.04
47726;BME280;33483;48.294;16.388;2023-08-30T11:32:38;98806.44;;;21.20;79.09
47726;BME280;33483;48.294;16.388;2023-08-30T11:35:06;98811.91;;;21.30;76.07
47726;BME280;33483;48.294;16.388;2023-08-30T11:37:33;98813.72;;;21.62;75.56
47726;BME280;33483;48.294;16.388;2023-08-30T11:40:01;98809.16;;;21.43;75.02
47726;BME280;33483;48.294;16.388;2023-08-30T11:42:29;98807.13;;;21.32;73.51
47726;BME280;33483;48.294;16.388;2023-08-30T11:44:57;98807.72;;;20.94;76.27
47726;BME280;33483;48.294;16.388;2023-08-30T11:47:25;98803.34;;;21.27;75.53
47726;BME280;33483;48.294;16.388;2023-08-30T11:49:52;98810.03;;;20.97;76.69
47726;BME280;33483;48.294;16.388;2023-08-30T11:52:21;98802.72;;;20.92;79.29
47726;BME280;33483;48.294;16.388;2023-08-30T11:54:49;98807.53;;;20.90;80.29
47726;BME280;33483;48.294;16.388;2023-08-30T11:57:17;98801.91;;;21.27;82.24
47726;BME280;33483;48.294;16.388;2023-08-30T11:59:45;98794.63;;;21.35;75.20
47726;BME280;33483;48.294;16.388;2023-08-30T12:02:15;98798.22;;;21.24;75.10
47726;BME280;33483;48.294;16.388;2023-08-30T12:04:44;98795.19;;;21.84;73.97
47726;BME280;33483;48.294;16.388;2023-08-30T12:07:22;98793.25;;;22.27;70.07
47726;BME280;33483;48.294;16.388;2023-08-30T12:09:50;98804.34;;;22.37;70.82
47726;BME280;33483;48.294;16.388;2023-08-30T12:12:18;98802.88;;;22.22;69.44
47726;BME280;33483;48.294;16.388;2023-08-30T12:14:54;98806.44;;;22.36;72.00
47726;BME280;33483;48.294;16.388;2023-08-30T12:17:21;98811.03;;;22.29;69.52
47726;BME280;33483;48.294;16.388;2023-08-30T12:19:57;98802.69;;;21.79;69.34
47726;BME280;33483;48.294;16.388;2023-08-30T12:22:43;98799.28;;;21.31;73.84
47726;BME280;33483;48.294;16.388;2023-08-30T12:27:44;98792.50;;;20.74;76.32
47726;BME280;33483;48.294;16.388;2023-08-30T12:30:14;98797.56;;;20.64;77.59
47726;BME280;33483;48.294;16.388;2023-08-30T12:32:44;98788.28;;;20.50;77.03
47726;BME280;33483;48.294;16.388;2023-08-30T12:35:12;98795.63;;;20.32;77.08
47726;BME280;33483;48.294;16.388;2023-08-30T12:37:39;98800.25;;;20.15;79.49
47726;BME280;33483;48.294;16.388;2023-08-30T12:40:06;98801.84;;;19.84;82.31
47726;BME280;33483;48.294;16.388;2023-08-30T12:42:34;98795.09;;;19.66;83.96
47726;BME280;33483;48.294;16.388;2023-08-30T12:45:01;98798.13;;;19.58;85.70
47726;BME280;33483;48.294;16.388;2023-08-30T12:47:30;98801.06;;;19.49;83.76
47726;BME280;33483;48.294;16.388;2023-08-30T12:49:57;98793.78;;;19.34;85.01
47726;BME280;33483;48.294;16.388;2023-08-30T12:52:24;98789.25;;;19.29;87.09
47726;BME280;33483;48.294;16.388;2023-08-30T12:54:51;98798.97;;;19.49;88.18
47726;BME280;33483;48.294;16.388;2023-08-30T12:57:21;98792.03;;;19.62;85.41
47726;BME280;33483;48.294;16.388;2023-08-30T12:59:48;98790.09;;;19.76;87.47
47726;BME280;33483;48.294;16.388;2023-08-30T13:02:15;98783.84;;;19.77;86.61
47726;BME280;33483;48.294;16.388;2023-08-30T13:04:42;98782.66;;;19.80;85.12